SAWG/RGL METAR and TAF weather

Enter ICAO airport designator
Station Type Date Time Source
SAWG METAR 2021/03/09 09:00 UTC NOAA

SAWG 090900Z 32007KT CAVOK 14/05 Q0995


Station Type Date Time Source
SAWG Decoded METAR 2021/03/09 09:00 UTC NOAA

Rio Gallegos Aerodrome, Argentina (SAWG) 51-37S 069-17W 19M
Mar 09, 2021 - 04:00 AM EST / 2021.03.09 0900 UTC
Wind: from the NW (320 degrees) at 8 MPH (7 KT):0
Visibility: greater than 7 mile(s):0
Temperature: 57 F (14 C)
Dew Point: 41 F (5 C)
Relative Humidity: 54%
Pressure (altimeter): 29.38 in. Hg (0995 hPa)
ob: SAWG 090900Z 32007KT CAVOK 14/05 Q0995
cycle: 9

Station Type Date Time Source
SAWG TAF 2021/03/09 06:24 UTC NOAA

TAF SAWG 090500Z 0906/1006 29010KT CAVOK TX25/0920Z TN08/0910Z
BECMG 0907/0909 02015KT 9999 BKN030
TEMPO 0912/0918 02025G35KT 8000 RA SCT020 BKN050
BECMG 1001/1003 29015KT

Example: see airport list